Time;durP1;ratioP1;P1;durP2;ratioP2;P2;SDS_P1;SDS_P2;PMS_P1;PMS_P2;Temp;Humidity;BMP_temperature;BMP_pressure;BME280_temperature;BME280_humidity;BME280_pressure;Samples;Min_cycle;Max_cycle;Signal;HPM_P1;HPM_P2
2021/10/19 00:00:42;;;;;;;;;;;;;;;;;;4998866;28;20380;-78
2021/10/19 00:03:09;;;;;;;;;;;;;;;;;;5016603;28;19933;-78
2021/10/19 00:05:35;;;;;;;;;;;;;;;;;;5017114;28;19910;-78
2021/10/19 00:08:01;;;;;;;;;;;;;;;;;;5015671;28;19910;-78
2021/10/19 00:10:27;;;;;;;;;;;;;;;;;;5016627;28;19910;-78
2021/10/19 00:12:53;;;;;;;;;;;;;;;;;;5016315;28;19913;-77
2021/10/19 00:15:19;;;;;;;;;;;;;;;;;;5016252;28;20056;-77
2021/10/19 00:17:45;;;;;;;;;;;;;;;;;;5016157;28;19950;-78
2021/10/19 00:20:10;;;;;;;;;;;;;;;;;;5015852;28;19910;-77
2021/10/19 00:22:36;;;;;;;;;;;;;;;;;;5016213;28;20019;-77
2021/10/19 00:25:04;;;;;;;;;;;;;;;;;;5015885;28;20149;-78
2021/10/19 00:27:30;;;;;;;;;;;;;;;;;;5015821;28;20375;-77
2021/10/19 00:29:56;;;;;;;;;;;;;;;;;;5016124;28;19917;-78
2021/10/19 00:32:22;;;;;;;;;;;;;;;;;;5016581;28;19910;-77
2021/10/19 00:34:48;;;;;;;;;;;;;;;;;;5015528;28;19981;-77
2021/10/19 00:37:14;;;;;;;;;;;;;;;;;;5015636;28;19909;-77
2021/10/19 00:39:40;;;;;;;;;;;;;;;;;;5015562;28;19921;-78
2021/10/19 00:42:06;;;;;;;;;;;;;;;;;;5015641;28;19913;-78
2021/10/19 00:44:32;;;;;;;;;;;;;;;;;;4998071;28;20386;-77
2021/10/19 00:46:58;;;;;;;;;;;;;;;;;;4998077;28;19909;-78
2021/10/19 00:49:24;;;;;;;;;;;;;;;;;;4998570;28;20339;-77
2021/10/19 00:51:50;;;;;;;;;;;;;;;;;;5015492;28;19910;-77
2021/10/19 00:54:17;;;;;;;;;;;;;;;;;;5015145;28;19926;-77
2021/10/19 00:56:43;;;;;;;;;;;;;;;;;;5015769;28;19910;-77
2021/10/19 00:59:09;;;;;;;;;;;;;;;;;;5015289;28;19932;-78
2021/10/19 01:01:35;;;;;;;;;;;;;;;;;;4997886;28;20441;-78
2021/10/19 01:04:01;;;;;;;;;;;;;;;;;;5015665;28;19952;-78
2021/10/19 01:06:27;;;;;;;;;;;;;;;;;;5015143;28;19956;-78
2021/10/19 01:08:53;;;;;;;;;;;;;;;;;;5015584;28;19917;-78
2021/10/19 01:11:19;;;;;;;;;;;;;;;;;;5015755;28;19914;-78
2021/10/19 01:13:45;;;;;;;;;;;;;;;;;;5017387;28;19925;-78
2021/10/19 01:16:10;;;;;;;;;;;;;;;;;;5034350;28;19913;-78
2021/10/19 01:18:36;;;;;;;;;;;;;;;;;;5017961;28;20099;-77
2021/10/19 01:21:02;;;;;;;;;;;;;;;;;;5041636;28;19959;-78
2021/10/19 01:23:28;;;;;;;;;;;;;;;;;;5041138;28;19909;-77
2021/10/19 01:25:54;;;;;;;;;;;;;;;;;;5023653;28;20371;-77
2021/10/19 01:28:20;;;;;;;;;;;;;;;;;;5024094;28;20012;-78
2021/10/19 01:30:46;;;;;;;;;;;;;;;;;;5023939;28;19931;-76
2021/10/19 01:33:12;;;;;;;;;;;;;;;;;;5041501;28;20331;-77
2021/10/19 01:35:38;;;;;;;;;;;;;;;;;;5023748;28;19935;-78
2021/10/19 01:38:04;;;;;;;;;;;;;;;;;;5041539;28;19954;-76
2021/10/19 01:40:30;;;;;;;;;;;;;;;;;;5041500;28;19949;-77
2021/10/19 01:42:56;;;;;;;;;;;;;;;;;;5041008;28;20010;-78
2021/10/19 01:45:21;;;;;;;;;;;;;;;;;;5041426;28;20365;-78
2021/10/19 01:47:47;;;;;;;;;;;;;;;;;;5041944;28;19909;-78
2021/10/19 01:50:13;;;;;;;;;;;;;;;;;;5041257;28;19963;-77
2021/10/19 01:52:39;;;;;;;;;;;;;;;;;;5040988;28;19909;-79
2021/10/19 01:55:05;;;;;;;;;;;;;;;;;;5041125;28;19971;-78
2021/10/19 01:57:31;;;;;;;;;;;;;;;;;;5041488;28;20357;-77
2021/10/19 01:59:57;;;;;;;;;;;;;;;;;;5023377;28;20012;-76
2021/10/19 02:02:23;;;;;;;;;;;;;;;;;;5041040;28;20352;-77
2021/10/19 02:04:49;;;;;;;;;;;;;;;;;;5041582;28;19910;-77
2021/10/19 02:07:15;;;;;;;;;;;;;;;;;;5041410;28;19913;-78
2021/10/19 02:09:41;;;;;;;;;;;;;;;;;;5041014;28;20332;-78
2021/10/19 02:12:07;;;;;;;;;;;;;;;;;;5041512;28;19952;-78
2021/10/19 02:14:33;;;;;;;;;;;;;;;;;;5041095;28;19983;-78
2021/10/19 02:16:58;;;;;;;;;;;;;;;;;;5041122;28;20003;-77
2021/10/19 02:19:26;;;;;;;;;;;;;;;;;;5041284;28;20356;-77
2021/10/19 02:21:52;;;;;;;;;;;;;;;;;;5041336;28;19909;-78
2021/10/19 02:24:18;;;;;;;;;;;;;;;;;;5041295;28;19909;-78
2021/10/19 02:26:44;;;;;;;;;;;;;;;;;;5023922;28;19971;-77
2021/10/19 02:29:10;;;;;;;;;;;;;;;;;;5042409;28;20363;-78
2021/10/19 02:31:36;;;;;;;;;;;;;;;;;;5038635;28;19913;-78
2021/10/19 02:34:02;;;;;;;;;;;;;;;;;;5020297;28;19914;-78
2021/10/19 02:36:30;;;;;;;;;;;;;;;;;;5037851;28;19909;-78
2021/10/19 02:38:55;;;;;;;;;;;;;;;;;;5020657;28;19920;-77
2021/10/19 02:41:21;;;;;;;;;;;;;;;;;;5038012;28;20295;-78
2021/10/19 02:43:47;;;;;;;;;;;;;;;;;;5037967;28;19909;-77
2021/10/19 02:46:13;;;;;;;;;;;;;;;;;;5020065;28;19915;-78
2021/10/19 02:48:39;;;;;;;;;;;;;;;;;;5019883;28;19955;-77
2021/10/19 02:51:05;;;;;;;;;;;;;;;;;;5037618;28;19913;-77
2021/10/19 02:53:31;;;;;;;;;;;;;;;;;;5036903;28;19923;-78
2021/10/19 02:55:57;;;;;;;;;;;;;;;;;;5037312;28;19909;-78
2021/10/19 02:58:23;;;;;;;;;;;;;;;;;;5037647;28;19984;-78
2021/10/19 03:00:49;;;;;;;;;;;;;;;;;;5037273;28;19909;-78
2021/10/19 03:03:15;;;;;;;;;;;;;;;;;;5019475;28;19911;-77
2021/10/19 03:05:41;;;;;;;;;;;;;;;;;;5037194;28;19909;-76
2021/10/19 03:08:06;;;;;;;;;;;;;;;;;;5037458;28;20312;-78
2021/10/19 03:10:32;;;;;;;;;;;;;;;;;;5037075;28;20152;-78
2021/10/19 03:12:58;;;;;;;;;;;;;;;;;;5037276;28;19909;-78
2021/10/19 03:15:24;;;;;;;;;;;;;;;;;;5037069;28;19913;-77
2021/10/19 03:17:50;;;;;;;;;;;;;;;;;;5036924;28;19914;-78
2021/10/19 03:20:16;;;;;;;;;;;;;;;;;;5037002;28;19913;-78
2021/10/19 03:22:42;;;;;;;;;;;;;;;;;;5037161;28;19959;-78
2021/10/19 03:25:08;;;;;;;;;;;;;;;;;;5018993;28;19913;-78
2021/10/19 03:27:34;;;;;;;;;;;;;;;;;;5037145;28;19909;-78
2021/10/19 03:30:00;;;;;;;;;;;;;;;;;;5036826;28;19909;-77
2021/10/19 03:32:26;;;;;;;;;;;;;;;;;;5037165;28;19913;-78
2021/10/19 03:34:51;;;;;;;;;;;;;;;;;;5036773;28;19921;-78
2021/10/19 03:37:17;;;;;;;;;;;;;;;;;;5037164;28;19910;-77
2021/10/19 03:39:43;;;;;;;;;;;;;;;;;;5037017;28;20382;-78
2021/10/19 03:42:09;;;;;;;;;;;;;;;;;;5018997;28;19909;-78
2021/10/19 03:44:35;;;;;;;;;;;;;;;;;;5036654;28;19936;-77
2021/10/19 03:47:01;;;;;;;;;;;;;;;;;;5036599;28;20387;-78
2021/10/19 03:49:27;;;;;;;;;;;;;;;;;;5036495;28;20371;-77
2021/10/19 03:51:53;;;;;;;;;;;;;;;;;;5035645;28;20004;-77
2021/10/19 03:54:19;;;;;;;;;;;;;;;;;;5035334;28;19921;-77
2021/10/19 03:56:45;;;;;;;;;;;;;;;;;;5035646;28;19909;-77
2021/10/19 03:59:11;;;;;;;;;;;;;;;;;;5034935;28;19909;-77
2021/10/19 04:01:37;;;;;;;;;;;;;;;;;;5035438;28;19916;-77
2021/10/19 04:04:03;;;;;;;;;;;;;;;;;;5036138;28;20256;-77
2021/10/19 04:06:29;;;;;;;;;;;;;;;;;;5035322;28;20012;-77
2021/10/19 04:08:55;;;;;;;;;;;;;;;;;;5034925;28;19928;-77
2021/10/19 04:11:21;;;;;;;;;;;;;;;;;;5035150;28;20294;-74
2021/10/19 04:13:47;;;;;;;;;;;;;;;;;;5017498;28;19927;-77
2021/10/19 04:16:13;;;;;;;;;;;;;;;;;;5035156;28;20351;-77
2021/10/19 04:18:39;;;;;;;;;;;;;;;;;;5034739;28;19910;-78
2021/10/19 04:21:07;;;;;;;;;;;;;;;;;;5034510;28;20136;-78
2021/10/19 04:23:33;;;;;;;;;;;;;;;;;;5035551;28;20362;-78
2021/10/19 04:25:59;;;;;;;;;;;;;;;;;;5035663;28;19905;-78
2021/10/19 04:28:25;;;;;;;;;;;;;;;;;;5018042;28;19915;-77
2021/10/19 04:30:51;;;;;;;;;;;;;;;;;;5036391;28;19909;-78
2021/10/19 04:33:17;;;;;;;;;;;;;;;;;;5036790;28;19916;-79
2021/10/19 04:35:43;;;;;;;;;;;;;;;;;;5036544;28;19913;-79
2021/10/19 04:38:09;;;;;;;;;;;;;;;;;;5036285;28;19913;-78
2021/10/19 04:40:35;;;;;;;;;;;;;;;;;;5035203;28;19920;-77
2021/10/19 04:43:01;;;;;;;;;;;;;;;;;;5035297;28;20287;-77
2021/10/19 04:45:28;;;;;;;;;;;;;;;;;;5034994;28;19909;-77
2021/10/19 04:47:54;;;;;;;;;;;;;;;;;;5035311;28;19909;-78
2021/10/19 04:50:20;;;;;;;;;;;;;;;;;;5035566;28;19931;-78
2021/10/19 04:52:46;;;;;;;;;;;;;;;;;;5036043;28;19919;-78
2021/10/19 04:55:11;;;;;;;;;;;;;;;;;;5035115;28;20012;-78
2021/10/19 04:57:37;;;;;;;;;;;;;;;;;;5035752;28;19909;-78
2021/10/19 05:00:03;;;;;;;;;;;;;;;;;;5035081;28;19909;-78
2021/10/19 05:02:29;;;;;;;;;;;;;;;;;;5035313;28;20012;-78
2021/10/19 05:04:55;;;;;;;;;;;;;;;;;;5035001;28;20010;-78
2021/10/19 05:07:21;;;;;;;;;;;;;;;;;;5034966;28;19987;-77
2021/10/19 05:09:47;;;;;;;;;;;;;;;;;;5016759;28;19910;-78
2021/10/19 05:12:13;;;;;;;;;;;;;;;;;;5034909;28;20310;-77
2021/10/19 05:14:39;;;;;;;;;;;;;;;;;;5016872;28;19952;-77
2021/10/19 05:17:05;;;;;;;;;;;;;;;;;;5034366;28;19909;-78
2021/10/19 05:19:31;;;;;;;;;;;;;;;;;;5035457;28;20004;-78
2021/10/19 05:21:57;;;;;;;;;;;;;;;;;;5035263;28;19952;-77
2021/10/19 05:24:23;;;;;;;;;;;;;;;;;;5034465;28;20367;-77
2021/10/19 05:26:49;;;;;;;;;;;;;;;;;;5034724;28;19909;-77
2021/10/19 05:29:15;;;;;;;;;;;;;;;;;;5016666;28;20233;-76
2021/10/19 05:31:41;;;;;;;;;;;;;;;;;;5016291;28;19909;-76
2021/10/19 05:34:07;;;;;;;;;;;;;;;;;;5033941;28;20354;-76
2021/10/19 05:36:33;;;;;;;;;;;;;;;;;;5034715;28;19948;-77
2021/10/19 05:38:59;;;;;;;;;;;;;;;;;;5034042;28;19909;-76
2021/10/19 05:41:25;;;;;;;;;;;;;;;;;;5033971;28;19909;-77
2021/10/19 05:43:51;;;;;;;;;;;;;;;;;;5034581;28;19913;-77
2021/10/19 05:46:17;;;;;;;;;;;;;;;;;;5016909;28;20405;-77
2021/10/19 05:48:43;;;;;;;;;;;;;;;;;;5034833;28;19967;-77
2021/10/19 05:51:09;;;;;;;;;;;;;;;;;;5017088;28;19909;-77
2021/10/19 05:53:35;;;;;;;;;;;;;;;;;;5033946;28;19924;-77
2021/10/19 05:56:01;;;;;;;;;;;;;;;;;;5034403;28;20327;-77
2021/10/19 05:58:27;;;;;;;;;;;;;;;;;;5034833;28;20415;-77
2021/10/19 06:00:52;;;;;;;;;;;;;;;;;;5016577;28;19909;-77
2021/10/19 06:03:18;;;;;;;;;;;;;;;;;;5033775;28;20148;-77
2021/10/19 06:05:45;;;;;;;;;;;;;;;;;;5034224;28;19959;-77
2021/10/19 06:08:11;;;;;;;;;;;;;;;;;;5037922;28;19953;-78
2021/10/19 06:10:37;;;;;;;;;;;;;;;;;;5037327;28;19913;-77
2021/10/19 06:13:03;;;;;;;;;;;;;;;;;;5037430;28;19909;-77
2021/10/19 06:15:29;;;;;;;;;;;;;;;;;;5037309;28;20360;-77
2021/10/19 06:17:55;;;;;;;;;;;;;;;;;;5037166;28;19964;-78
2021/10/19 06:20:21;;;;;;;;;;;;;;;;;;5037406;28;20345;-73
2021/10/19 06:22:47;;;;;;;;;;;;;;;;;;5037722;28;20365;-77
2021/10/19 06:25:13;;;;;;;;;;;;;;;;;;5037511;28;20333;-77
2021/10/19 06:27:39;;;;;;;;;;;;;;;;;;5019786;28;20321;-77
2021/10/19 06:30:05;;;;;;;;;;;;;;;;;;5037658;28;19957;-76
2021/10/19 06:32:32;;;;;;;;;;;;;;;;;;5037971;28;19909;-77
2021/10/19 06:34:57;;;;;;;;;;;;;;;;;;5037843;28;19913;-77
2021/10/19 06:37:23;;;;;;;;;;;;;;;;;;5037321;28;19910;-77
2021/10/19 06:39:49;;;;;;;;;;;;;;;;;;5019185;28;19916;-77
2021/10/19 06:42:15;;;;;;;;;;;;;;;;;;5037295;28;20004;-77
2021/10/19 06:44:44;;;;;;;;;;;;;;;;;;5037104;28;20455;-77
2021/10/19 06:47:09;;;;;;;;;;;;;;;;;;5036725;28;19982;-77
2021/10/19 06:49:35;;;;;;;;;;;;;;;;;;5036988;28;20299;-76
2021/10/19 06:52:01;;;;;;;;;;;;;;;;;;5036872;28;19909;-77
2021/10/19 06:54:28;;;;;;;;;;;;;;;;;;5036412;28;20007;-77
2021/10/19 06:56:54;;;;;;;;;;;;;;;;;;5036934;28;19967;-77
2021/10/19 06:59:20;;;;;;;;;;;;;;;;;;5037170;28;19913;-78
2021/10/19 07:01:46;;;;;;;;;;;;;;;;;;5018897;28;19967;-77
2021/10/19 07:04:12;;;;;;;;;;;;;;;;;;5037508;28;20283;-77
2021/10/19 07:06:37;;;;;;;;;;;;;;;;;;5037112;28;19909;-77
2021/10/19 07:09:03;;;;;;;;;;;;;;;;;;5011119;28;20262;-77
2021/10/19 07:11:29;;;;;;;;;;;;;;;;;;5017089;28;20394;-75
2021/10/19 07:13:55;;;;;;;;;;;;;;;;;;5035467;28;19921;-77
2021/10/19 07:16:21;;;;;;;;;;;;;;;;;;5016886;28;20287;-78
2021/10/19 07:18:47;;;;;;;;;;;;;;;;;;5036344;28;19985;-77
2021/10/19 07:21:13;;;;;;;;;;;;;;;;;;5036018;28;19920;-77
2021/10/19 07:23:39;;;;;;;;;;;;;;;;;;5035729;28;19913;-78
2021/10/19 07:26:05;;;;;;;;;;;;;;;;;;5037513;28;19914;-76
2021/10/19 07:28:31;;;;;;;;;;;;;;;;;;5035746;28;19913;-77
2021/10/19 07:30:57;;;;;;;;;;;;;;;;;;5035106;28;19913;-77
2021/10/19 07:33:23;;;;;;;;;;;;;;;;;;5035637;28;19913;-78
2021/10/19 07:35:49;;;;;;;;;;;;;;;;;;5014477;28;20189;-78
2021/10/19 07:38:14;;;;;;;;;;;;;;;;;;5016820;28;20003;-76
2021/10/19 07:40:40;;;;;;;;;;;;;;;;;;5030482;28;19913;-77
2021/10/19 07:43:06;;;;;;;;;;;;;;;;;;5029402;28;20012;-78
2021/10/19 07:45:34;;;;;;;;;;;;;;;;;;5015165;28;19973;-77
2021/10/19 07:48:01;;;;;;;;;;;;;;;;;;5014227;28;19960;-76
2021/10/19 07:50:29;;;;;;;;;;;;;;;;;;5015095;28;19921;-77
2021/10/19 07:52:55;;;;;;;;;;;;;;;;;;4997517;28;19964;-77
2021/10/19 07:55:22;;;;;;;;;;;;;;;;;;5012427;28;19917;-78
2021/10/19 07:57:47;;;;;;;;;;;;;;;;;;5014977;28;20364;-78
2021/10/19 08:00:13;;;;;;;;;;;;;;;;;;5014164;28;19914;-76
2021/10/19 08:02:42;;;;;;;;;;;;;;;;;;5014254;28;19960;-78
2021/10/19 08:05:12;;;;;;;;;;;;;;;;;;5029643;28;19963;-77
2021/10/19 08:07:38;;;;;;;;;;;;;;;;;;5033838;28;20338;-78
2021/10/19 08:10:04;;;;;;;;;;;;;;;;;;5033919;28;19920;-78
2021/10/19 08:12:30;;;;;;;;;;;;;;;;;;5035974;28;19909;-79
2021/10/19 08:15:00;;;;;;;;;;;;;;;;;;5027213;28;19917;-79
2021/10/19 08:17:26;;;;;;;;;;;;;;;;;;5024856;28;20001;-78
2021/10/19 08:19:53;;;;;;;;;;;;;;;;;;5039483;28;19917;-78
2021/10/19 08:22:19;;;;;;;;;;;;;;;;;;5027309;28;19948;-79
2021/10/19 08:24:45;;;;;;;;;;;;;;;;;;5040153;28;19917;-80
2021/10/19 08:27:11;;;;;;;;;;;;;;;;;;5038621;28;19916;-79
2021/10/19 08:29:37;;;;;;;;;;;;;;;;;;5054827;28;19912;-77
2021/10/19 08:32:03;;;;;;;;;;;;;;;;;;5061053;28;20325;-77
2021/10/19 08:34:29;;;;;;;;;;;;;;;;;;5066467;28;20012;-75
2021/10/19 08:36:54;;;;;;;;;;;;;;;;;;5063989;28;19908;-76
2021/10/19 08:39:20;;;;;;;;;;;;;;;;;;5065946;28;20355;-76
2021/10/19 08:41:46;;;;;;;;;;;;;;;;;;5065001;28;19908;-76
2021/10/19 08:44:15;;;;;;;;;;;;;;;;;;5051889;28;19909;-76
2021/10/19 08:46:41;;;;;;;;;;;;;;;;;;5039716;28;19972;-76
2021/10/19 08:49:07;;;;;;;;;;;;;;;;;;5042306;28;19944;-78
2021/10/19 08:51:33;;;;;;;;;;;;;;;;;;5039289;28;19959;-77
2021/10/19 08:53:59;;;;;;;;;;;;;;;;;;5026782;28;19948;-73
2021/10/19 08:56:25;;;;;;;;;;;;;;;;;;5016528;28;20117;-75
2021/10/19 08:58:51;;;;;;;;;;;;;;;;;;5015428;28;19936;-78
2021/10/19 09:01:17;;;;;;;;;;;;;;;;;;5013707;28;19921;-77
2021/10/19 09:03:43;;;;;;;;;;;;;;;;;;5016089;28;19913;-77
2021/10/19 09:06:09;;;;;;;;;;;;;;;;;;5030841;28;19913;-77
2021/10/19 09:08:35;;;;;;;;;;;;;;;;;;5031302;28;20390;-77
2021/10/19 09:11:01;;;;;;;;;;;;;;;;;;5030616;28;19936;-78
2021/10/19 09:13:27;;;;;;;;;;;;;;;;;;5031173;28;19913;-78
2021/10/19 09:15:52;;;;;;;;;;;;;;;;;;5015205;28;19925;-76
2021/10/19 09:18:19;;;;;;;;;;;;;;;;;;5031424;28;19913;-75
2021/10/19 09:20:46;;;;;;;;;;;;;;;;;;5032666;28;19920;-76
2021/10/19 09:23:15;;;;;;;;;;;;;;;;;;5035760;28;19941;-77
2021/10/19 09:25:41;;;;;;;;;;;;;;;;;;5037526;28;19916;-79
2021/10/19 09:28:07;;;;;;;;;;;;;;;;;;5016795;28;20008;-75
2021/10/19 09:30:33;;;;;;;;;;;;;;;;;;5036535;28;19944;-79
2021/10/19 09:32:59;;;;;;;;;;;;;;;;;;5033945;28;20330;-78
2021/10/19 09:35:25;;;;;;;;;;;;;;;;;;5036809;28;19917;-78
2021/10/19 09:37:51;;;;;;;;;;;;;;;;;;5016034;28;19924;-77
2021/10/19 09:40:17;;;;;;;;;;;;;;;;;;5020871;28;19909;-75
2021/10/19 09:42:42;;;;;;;;;;;;;;;;;;5020084;28;19920;-76
2021/10/19 09:45:08;;;;;;;;;;;;;;;;;;5019258;28;19909;-78
2021/10/19 09:47:38;;;;;;;;;;;;;;;;;;5017581;28;19909;-76
2021/10/19 09:50:04;;;;;;;;;;;;;;;;;;5018039;28;19936;-77
2021/10/19 09:52:30;;;;;;;;;;;;;;;;;;5017487;28;20352;-74
2021/10/19 09:54:56;;;;;;;;;;;;;;;;;;5018763;28;19932;-78
2021/10/19 09:57:21;;;;;;;;;;;;;;;;;;5018756;28;19910;-78
2021/10/19 09:59:47;;;;;;;;;;;;;;;;;;5035551;28;19938;-77
2021/10/19 10:02:13;;;;;;;;;;;;;;;;;;5036444;28;19948;-76
2021/10/19 10:04:39;;;;;;;;;;;;;;;;;;5037040;28;19913;-77
2021/10/19 10:07:05;;;;;;;;;;;;;;;;;;5036414;28;20007;-75
2021/10/19 10:09:31;;;;;;;;;;;;;;;;;;5037554;28;20004;-77
2021/10/19 10:11:57;;;;;;;;;;;;;;;;;;5038024;28;19913;-73
2021/10/19 10:14:23;;;;;;;;;;;;;;;;;;5037151;28;19940;-76
2021/10/19 10:16:49;;;;;;;;;;;;;;;;;;5036080;28;19920;-77
2021/10/19 10:19:15;;;;;;;;;;;;;;;;;;5035505;28;19937;-75
2021/10/19 10:21:41;;;;;;;;;;;;;;;;;;5036697;28;20300;-76
2021/10/19 10:24:07;;;;;;;;;;;;;;;;;;5037503;28;19911;-74
2021/10/19 10:26:33;;;;;;;;;;;;;;;;;;5036044;28;19928;-72
2021/10/19 10:28:59;;;;;;;;;;;;;;;;;;5037243;28;20453;-74
2021/10/19 10:31:26;;;;;;;;;;;;;;;;;;5055432;22;19960;-75
2021/10/19 10:33:52;;;;;;;;;;;;;;;;;;5076035;28;20002;-74
2021/10/19 10:36:17;;;;;;;;;;;;;;;;;;5077635;28;19959;-74
2021/10/19 10:38:43;;;;;;;;;;;;;;;;;;5077841;28;19950;-75
2021/10/19 10:41:09;;;;;;;;;;;;;;;;;;5070021;28;19975;-74
2021/10/19 10:43:36;;;;;;;;;;;;;;;;;;5057536;28;19912;-76
2021/10/19 10:46:05;;;;;;;;;;;;;;;;;;5059087;28;19909;-75
2021/10/19 10:48:32;;;;;;;;;;;;;;;;;;5057281;28;19913;-74
2021/10/19 10:50:58;;;;;;;;;;;;;;;;;;5075899;28;19965;-76
2021/10/19 10:53:24;;;;;;;;;;;;;;;;;;5076938;28;20003;-77
2021/10/19 10:55:52;;;;;;;;;;;;;;;;;;5072515;28;19920;-74
2021/10/19 10:58:18;;;;;;;;;;;;;;;;;;5053415;28;19920;-76
2021/10/19 11:00:44;;;;;;;;;;;;;;;;;;5035162;28;20274;-76
2021/10/19 11:03:10;;;;;;;;;;;;;;;;;;5066689;28;20408;-77
2021/10/19 11:05:36;;;;;;;;;;;;;;;;;;5072331;28;19999;-76
2021/10/19 11:08:02;;;;;;;;;;;;;;;;;;5073197;28;20003;-74
2021/10/19 11:10:28;;;;;;;;;;;;;;;;;;5075364;28;20013;-75
2021/10/19 11:12:54;;;;;;;;;;;;;;;;;;5076023;28;19915;-74
2021/10/19 11:15:20;;;;;;;;;;;;;;;;;;5075307;28;19920;-73
2021/10/19 11:17:46;;;;;;;;;;;;;;;;;;5076532;28;20328;-74
2021/10/19 11:20:12;;;;;;;;;;;;;;;;;;5076495;28;19931;-74
2021/10/19 11:22:38;;;;;;;;;;;;;;;;;;5077488;28;19920;-74
2021/10/19 11:25:03;;;;;;;;;;;;;;;;;;5040388;28;19912;-75
2021/10/19 11:27:29;;;;;;;;;;;;;;;;;;5038291;28;20437;-75
2021/10/19 11:29:57;;;;;;;;;;;;;;;;;;5056866;28;19909;-74
2021/10/19 11:32:24;;;;;;;;;;;;;;;;;;5055764;28;19940;-75
2021/10/19 11:34:50;;;;;;;;;;;;;;;;;;5056822;28;19917;-77
2021/10/19 11:37:16;;;;;;;;;;;;;;;;;;5056971;28;20298;-76
2021/10/19 11:39:42;;;;;;;;;;;;;;;;;;5063620;28;19919;-75
2021/10/19 11:42:09;;;;;;;;;;;;;;;;;;5077425;28;19941;-74
2021/10/19 11:44:35;;;;;;;;;;;;;;;;;;5075636;28;19932;-75
2021/10/19 11:47:02;;;;;;;;;;;;;;;;;;5076462;28;19912;-74
2021/10/19 11:49:28;;;;;;;;;;;;;;;;;;5074023;28;19966;-77
2021/10/19 11:51:54;;;;;;;;;;;;;;;;;;5056492;28;20378;-75
2021/10/19 11:54:20;;;;;;;;;;;;;;;;;;5055578;28;19927;-74
2021/10/19 11:56:46;;;;;;;;;;;;;;;;;;5055363;28;19909;-74
2021/10/19 11:59:12;;;;;;;;;;;;;;;;;;5055708;28;19919;-75
2021/10/19 12:01:38;;;;;;;;;;;;;;;;;;5065650;28;19919;-75
2021/10/19 12:04:04;;;;;;;;;;;;;;;;;;5075349;28;19913;-75
2021/10/19 12:06:32;;;;;;;;;;;;;;;;;;5075410;28;19923;-75
2021/10/19 12:08:59;;;;;;;;;;;;;;;;;;5075264;28;19948;-77
2021/10/19 12:11:25;;;;;;;;;;;;;;;;;;5077977;28;19912;-75
2021/10/19 12:13:51;;;;;;;;;;;;;;;;;;5077349;28;19971;-75
2021/10/19 12:16:17;;;;;;;;;;;;;;;;;;5070878;28;19909;-75
2021/10/19 12:18:44;;;;;;;;;;;;;;;;;;5038448;28;19909;-78
2021/10/19 12:21:10;;;;;;;;;;;;;;;;;;5057097;28;20386;-76
2021/10/19 12:23:38;;;;;;;;;;;;;;;;;;5056946;28;19939;-77
2021/10/19 12:26:07;;;;;;;;;;;;;;;;;;5055884;28;19932;-75
2021/10/19 12:28:33;;;;;;;;;;;;;;;;;;5037067;28;20032;-76
2021/10/19 12:30:59;;;;;;;;;;;;;;;;;;5055133;28;20027;-76
2021/10/19 12:33:25;;;;;;;;;;;;;;;;;;5056103;28;19912;-74
2021/10/19 12:35:52;;;;;;;;;;;;;;;;;;5055850;28;20297;-75
2021/10/19 12:38:18;;;;;;;;;;;;;;;;;;5055040;28;20444;-74
2021/10/19 12:40:45;;;;;;;;;;;;;;;;;;5055638;28;19908;-75
2021/10/19 12:43:11;;;;;;;;;;;;;;;;;;5058273;28;19920;-77
2021/10/19 12:45:37;;;;;;;;;;;;;;;;;;5038047;28;19908;-75
2021/10/19 12:48:05;;;;;;;;;;;;;;;;;;5057502;28;19920;-75
2021/10/19 12:50:31;;;;;;;;;;;;;;;;;;5055851;28;19913;-77
2021/10/19 12:52:56;;;;;;;;;;;;;;;;;;5037792;28;19912;-73
2021/10/19 12:55:22;;;;;;;;;;;;;;;;;;5036829;28;19925;-76
2021/10/19 12:57:48;;;;;;;;;;;;;;;;;;5055359;28;19962;-76
2021/10/19 13:00:14;;;;;;;;;;;;;;;;;;5038523;28;19940;-77
2021/10/19 13:02:41;;;;;;;;;;;;;;;;;;5038277;28;19986;-75
2021/10/19 13:05:09;;;;;;;;;;;;;;;;;;5071873;28;19952;-75
2021/10/19 13:07:35;;;;;;;;;;;;;;;;;;5069637;28;19929;-76
2021/10/19 13:10:01;;;;;;;;;;;;;;;;;;5077544;28;19978;-76
2021/10/19 13:12:28;;;;;;;;;;;;;;;;;;5074506;28;20278;-76
2021/10/19 13:14:55;;;;;;;;;;;;;;;;;;5076328;28;20432;-75
2021/10/19 13:17:22;;;;;;;;;;;;;;;;;;5075696;28;19912;-75
2021/10/19 13:19:48;;;;;;;;;;;;;;;;;;5074207;28;19912;-76
2021/10/19 13:22:14;;;;;;;;;;;;;;;;;;5075116;28;19919;-76
2021/10/19 13:24:40;;;;;;;;;;;;;;;;;;5075033;28;20056;-75
2021/10/19 13:27:06;;;;;;;;;;;;;;;;;;5074169;28;19962;-76
2021/10/19 13:29:32;;;;;;;;;;;;;;;;;;5075170;28;19920;-76
2021/10/19 13:31:59;;;;;;;;;;;;;;;;;;5074675;28;19952;-75
2021/10/19 13:34:25;;;;;;;;;;;;;;;;;;5056501;28;19916;-78
2021/10/19 13:36:51;;;;;;;;;;;;;;;;;;5057368;28;19919;-78
2021/10/19 13:39:19;;;;;;;;;;;;;;;;;;5076185;28;20297;-77
2021/10/19 13:41:47;;;;;;;;;;;;;;;;;;5074551;28;20481;-77
2021/10/19 13:44:14;;;;;;;;;;;;;;;;;;5075344;28;19912;-78
2021/10/19 13:46:40;;;;;;;;;;;;;;;;;;5075535;28;19917;-77
2021/10/19 13:49:06;;;;;;;;;;;;;;;;;;5075410;28;20367;-75
2021/10/19 13:51:32;;;;;;;;;;;;;;;;;;5057573;28;19999;-78
2021/10/19 13:53:58;;;;;;;;;;;;;;;;;;5075958;28;19959;-78
2021/10/19 13:56:24;;;;;;;;;;;;;;;;;;5075621;28;19995;-78
2021/10/19 13:58:50;;;;;;;;;;;;;;;;;;5056829;28;19928;-75
2021/10/19 14:01:16;;;;;;;;;;;;;;;;;;5078685;28;19908;-76
2021/10/19 14:03:42;;;;;;;;;;;;;;;;;;5061873;28;19952;-74
2021/10/19 14:06:13;;;;;;;;;;;;;;;;;;5061492;28;19912;-76
2021/10/19 14:08:39;;;;;;;;;;;;;;;;;;5076442;28;19920;-78
2021/10/19 14:11:06;;;;;;;;;;;;;;;;;;5079758;28;19912;-77
2021/10/19 14:13:38;;;;;;;;;;;;;;;;;;5076105;28;19913;-75
2021/10/19 14:16:04;;;;;;;;;;;;;;;;;;5081588;28;19959;-77
2021/10/19 14:18:30;;;;;;;;;;;;;;;;;;5079398;28;20020;-77
2021/10/19 14:20:56;;;;;;;;;;;;;;;;;;5058746;28;20362;-76
2021/10/19 14:23:22;;;;;;;;;;;;;;;;;;5077907;28;19947;-76
2021/10/19 14:25:48;;;;;;;;;;;;;;;;;;5083037;28;19920;-75
2021/10/19 14:28:14;;;;;;;;;;;;;;;;;;5082245;28;19908;-72
2021/10/19 14:30:40;;;;;;;;;;;;;;;;;;5082425;28;19924;-76
2021/10/19 14:33:06;;;;;;;;;;;;;;;;;;5067208;28;19913;-79
2021/10/19 14:35:32;;;;;;;;;;;;;;;;;;5085394;28;19920;-76
2021/10/19 14:37:58;;;;;;;;;;;;;;;;;;5086696;28;20270;-74
2021/10/19 14:40:24;;;;;;;;;;;;;;;;;;5089585;28;19914;-73
2021/10/19 14:42:51;;;;;;;;;;;;;;;;;;5089406;28;19912;-73
2021/10/19 14:45:25;;;;;;;;;;;;;;;;;;5088716;28;19915;-73
2021/10/19 14:47:52;;;;;;;;;;;;;;;;;;5087510;28;19935;-72
2021/10/19 14:50:21;;;;;;;;;;;;;;;;;;5069597;28;19908;-75
2021/10/19 14:52:47;;;;;;;;;;;;;;;;;;5087416;28;19909;-74
2021/10/19 14:55:13;;;;;;;;;;;;;;;;;;5087356;28;20333;-75
2021/10/19 14:57:42;;;;;;;;;;;;;;;;;;5086363;28;19971;-73
2021/10/19 15:00:09;;;;;;;;;;;;;;;;;;5085074;28;20334;-74
2021/10/19 15:02:35;;;;;;;;;;;;;;;;;;5087666;28;19916;-73
2021/10/19 15:05:00;;;;;;;;;;;;;;;;;;5087037;28;19912;-72
2021/10/19 15:07:26;;;;;;;;;;;;;;;;;;5066594;28;19915;-75
2021/10/19 15:09:55;;;;;;;;;;;;;;;;;;5077751;28;19952;-76
2021/10/19 15:12:21;;;;;;;;;;;;;;;;;;5066111;28;19909;-71
2021/10/19 15:14:50;;;;;;;;;;;;;;;;;;5069287;28;19989;-73
2021/10/19 15:17:16;;;;;;;;;;;;;;;;;;5073029;28;19962;-72
2021/10/19 15:19:42;;;;;;;;;;;;;;;;;;5049953;28;19909;-74
2021/10/19 15:22:08;;;;;;;;;;;;;;;;;;5065073;28;19962;-73
2021/10/19 15:24:34;;;;;;;;;;;;;;;;;;5068252;28;19909;-73
2021/10/19 15:27:00;;;;;;;;;;;;;;;;;;5066634;28;19913;-74
2021/10/19 15:29:27;;;;;;;;;;;;;;;;;;5066959;28;19983;-73
2021/10/19 15:31:53;;;;;;;;;;;;;;;;;;5069522;28;19973;-73
2021/10/19 15:34:19;;;;;;;;;;;;;;;;;;5085690;28;19912;-75
2021/10/19 15:36:45;;;;;;;;;;;;;;;;;;5087335;28;19919;-73
2021/10/19 15:39:12;;;;;;;;;;;;;;;;;;5087206;28;19909;-74
2021/10/19 15:41:38;;;;;;;;;;;;;;;;;;5087123;28;19975;-74
2021/10/19 15:44:04;;;;;;;;;;;;;;;;;;5087179;28;19977;-72
2021/10/19 15:46:35;;;;;;;;;;;;;;;;;;5088069;28;20376;-73
2021/10/19 15:49:01;;;;;;;;;;;;;;;;;;5087613;28;19936;-74
2021/10/19 15:51:26;;;;;;;;;;;;;;;;;;5086390;28;19908;-72
2021/10/19 15:53:52;;;;;;;;;;;;;;;;;;5070237;28;19909;-73
2021/10/19 15:56:18;;;;;;;;;;;;;;;;;;5049562;28;20008;-72
2021/10/19 15:58:44;;;;;;;;;;;;;;;;;;5048724;28;19913;-72
2021/10/19 16:01:10;;;;;;;;;;;;;;;;;;5066348;28;20264;-76
2021/10/19 16:03:36;;;;;;;;;;;;;;;;;;5065270;28;19913;-73
2021/10/19 16:06:02;;;;;;;;;;;;;;;;;;5067915;28;19931;-72
2021/10/19 16:08:29;;;;;;;;;;;;;;;;;;5067504;28;19915;-72
2021/10/19 16:10:57;;;;;;;;;;;;;;;;;;5067712;28;19909;-73
2021/10/19 16:13:23;;;;;;;;;;;;;;;;;;5066329;28;19909;-73
2021/10/19 16:15:51;;;;;;;;;;;;;;;;;;5066658;28;19955;-77
2021/10/19 16:18:17;;;;;;;;;;;;;;;;;;5063271;28;19909;-76
2021/10/19 16:20:44;;;;;;;;;;;;;;;;;;5086518;28;19920;-73
2021/10/19 16:23:10;;;;;;;;;;;;;;;;;;5087407;28;19920;-73
2021/10/19 16:25:40;;;;;;;;;;;;;;;;;;5087563;28;19908;-72
2021/10/19 16:28:07;;;;;;;;;;;;;;;;;;5087003;28;19915;-73
2021/10/19 16:30:37;;;;;;;;;;;;;;;;;;5087090;28;19920;-73
2021/10/19 16:33:03;;;;;;;;;;;;;;;;;;5087454;28;20364;-72
2021/10/19 16:35:29;;;;;;;;;;;;;;;;;;5070995;28;19975;-72
2021/10/19 16:37:56;;;;;;;;;;;;;;;;;;5066580;28;19916;-71